Time;durP1;ratioP1;P1;durP2;ratioP2;P2;SDS_P1;SDS_P2;PMS_P1;PMS_P2;Temp;Humidity;BMP_temperature;BMP_pressure;BME280_temperature;BME280_humidity;BME280_pressure;Samples;Min_cycle;Max_cycle;Signal;HPM_P1;HPM_P2
2021/06/16 00:00:14;;;;;;;;;;;16.10;99.90;;;;;;5089922;28;19919;-72
2021/06/16 00:02:40;;;;;;;;;;;16.10;99.90;;;;;;5090594;28;19908;-72
2021/06/16 00:05:07;;;;;;;;;;;16.00;99.90;;;;;;5090439;28;19912;-72
2021/06/16 00:07:32;;;;;;;;;;;16.00;99.90;;;;;;5089052;28;20361;-72
2021/06/16 00:09:58;;;;;;;;;;;15.90;99.90;;;;;;5090655;28;19916;-72
2021/06/16 00:12:24;;;;;;;;;;;15.90;99.90;;;;;;5089355;28;19909;-72
2021/06/16 00:14:51;;;;;;;;;;;15.80;99.90;;;;;;5090116;28;19952;-72
2021/06/16 00:17:16;;;;;;;;;;;15.70;99.90;;;;;;5089018;28;20335;-72
2021/06/16 00:19:42;;;;;;;;;;;15.70;99.90;;;;;;5090319;28;19908;-72
2021/06/16 00:22:07;;;;;;;;;;;15.70;99.90;;;;;;5090244;28;19912;-72
2021/06/16 00:24:33;;;;;;;;;;;15.70;99.90;;;;;;5081867;28;20313;-72
2021/06/16 00:26:59;;;;;;;;;;;15.60;99.90;;;;;;5088635;28;19930;-72
2021/06/16 00:29:24;;;;;;;;;;;15.60;99.90;;;;;;5089958;28;20002;-72
2021/06/16 00:31:50;;;;;;;;;;;15.60;99.90;;;;;;5090094;28;19913;-72
2021/06/16 00:34:15;;;;;;;;;;;15.50;99.90;;;;;;5090420;28;19915;-72
2021/06/16 00:36:42;;;;;;;;;;;15.50;99.90;;;;;;5089147;28;19922;-72
2021/06/16 00:39:08;;;;;;;;;;;15.50;99.90;;;;;;5090470;28;19912;-72
2021/06/16 00:41:34;;;;;;;;;;;15.50;99.90;;;;;;5089918;28;20022;-72
2021/06/16 00:43:59;;;;;;;;;;;15.50;99.90;;;;;;5089701;28;20416;-72
2021/06/16 00:46:25;;;;;;;;;;;15.50;99.90;;;;;;5089093;28;20376;-72
2021/06/16 00:48:50;;;;;;;;;;;15.50;99.90;;;;;;5089576;28;19931;-72
2021/06/16 00:51:16;;;;;;;;;;;15.40;99.90;;;;;;5092221;28;19908;-72
2021/06/16 00:53:41;;;;;;;;;;;15.40;99.90;;;;;;5085908;28;19934;-72
2021/06/16 00:56:07;;;;;;;;;;;15.50;99.90;;;;;;5092813;28;19970;-72
2021/06/16 00:58:32;;;;;;;;;;;15.50;99.90;;;;;;5093480;28;19908;-72
2021/06/16 01:01:01;;;;;;;;;;;15.50;99.90;;;;;;5093879;28;19957;-72
2021/06/16 01:03:32;;;;;;;;;;;15.50;99.90;;;;;;5094035;28;19908;-72
2021/06/16 01:06:01;;;;;;;;;;;15.50;99.90;;;;;;5093378;28;20085;-72
2021/06/16 01:08:28;;;;;;;;;;;15.50;99.90;;;;;;5093897;28;19912;-72
2021/06/16 01:10:54;;;;;;;;;;;15.40;99.90;;;;;;5094243;28;19912;-72
2021/06/16 01:13:20;;;;;;;;;;;15.40;99.90;;;;;;5093548;28;19954;-72
2021/06/16 01:15:53;;;;;;;;;;;15.50;99.90;;;;;;5093009;28;20289;-72
2021/06/16 01:18:19;;;;;;;;;;;15.40;99.90;;;;;;5093223;28;19987;-72
2021/06/16 01:20:48;;;;;;;;;;;15.40;99.90;;;;;;5093664;28;19908;-72
2021/06/16 01:23:20;;;;;;;;;;;15.30;99.90;;;;;;5081996;28;19913;-72
2021/06/16 01:25:45;;;;;;;;;;;15.30;99.90;;;;;;5085273;28;19919;-72
2021/06/16 01:28:12;;;;;;;;;;;15.20;99.90;;;;;;5093354;28;20288;-72
2021/06/16 01:30:38;;;;;;;;;;;15.10;99.90;;;;;;5093247;28;19908;-72
2021/06/16 01:33:08;;;;;;;;;;;15.10;99.90;;;;;;5093641;28;19916;-72
2021/06/16 01:35:35;;;;;;;;;;;15.10;99.90;;;;;;5093280;28;19908;-72
2021/06/16 01:38:01;;;;;;;;;;;15.10;99.90;;;;;;5091340;28;20459;-72
2021/06/16 01:40:27;;;;;;;;;;;15.10;99.90;;;;;;5093683;28;19916;-72
2021/06/16 01:42:54;;;;;;;;;;;15.10;99.90;;;;;;5093182;28;20296;-72
2021/06/16 01:45:20;;;;;;;;;;;15.10;99.90;;;;;;5093388;28;19912;-72
2021/06/16 01:47:47;;;;;;;;;;;15.20;99.90;;;;;;5092769;28;19915;-71
2021/06/16 01:50:15;;;;;;;;;;;15.10;99.90;;;;;;5092850;28;19912;-72
2021/06/16 01:52:40;;;;;;;;;;;15.10;99.90;;;;;;5090200;28;19978;-72
2021/06/16 01:55:06;;;;;;;;;;;15.10;99.90;;;;;;5088589;28;20373;-72
2021/06/16 01:57:33;;;;;;;;;;;15.10;99.90;;;;;;5091688;28;19908;-72
2021/06/16 02:00:00;;;;;;;;;;;15.10;99.90;;;;;;5092531;28;20438;-72
2021/06/16 02:02:25;;;;;;;;;;;15.10;99.90;;;;;;5093121;28;19951;-72
2021/06/16 02:04:51;;;;;;;;;;;15.10;99.90;;;;;;5092379;28;19954;-72
2021/06/16 02:07:19;;;;;;;;;;;15.10;99.90;;;;;;5092377;28;20349;-72
2021/06/16 02:09:46;;;;;;;;;;;15.00;99.90;;;;;;5092571;28;19908;-72
2021/06/16 02:12:14;;;;;;;;;;;14.90;99.90;;;;;;5092840;28;19930;-72
2021/06/16 02:14:47;;;;;;;;;;;14.90;99.90;;;;;;5092860;28;19908;-72
2021/06/16 02:17:14;;;;;;;;;;;15.00;99.90;;;;;;5091441;28;19912;-72
2021/06/16 02:19:40;;;;;;;;;;;15.00;99.90;;;;;;5092237;28;20664;-72
2021/06/16 02:22:07;;;;;;;;;;;15.00;99.90;;;;;;5092769;28;20376;-72
2021/06/16 02:24:33;;;;;;;;;;;15.00;99.90;;;;;;5084039;28;19935;-72
2021/06/16 02:26:59;;;;;;;;;;;15.00;99.90;;;;;;5106231;28;20375;-72
2021/06/16 02:29:26;;;;;;;;;;;15.00;99.90;;;;;;5112419;28;19912;-72
2021/06/16 02:31:51;;;;;;;;;;;14.90;99.90;;;;;;5112658;28;19914;-72
2021/06/16 02:34:17;;;;;;;;;;;14.90;99.90;;;;;;5107752;28;19908;-72
2021/06/16 02:36:44;;;;;;;;;;;14.90;99.90;;;;;;5091627;28;19908;-72
2021/06/16 02:39:30;;;;;;;;;;;14.90;99.90;;;;;;5091934;28;19923;-72
2021/06/16 02:41:56;;;;;;;;;;;14.90;99.90;;;;;;5092013;28;19916;-72
2021/06/16 02:44:23;;;;;;;;;;;14.90;99.90;;;;;;5090295;28;19918;-72
2021/06/16 02:46:50;;;;;;;;;;;14.90;99.90;;;;;;5091445;28;19974;-72
2021/06/16 02:49:16;;;;;;;;;;;14.80;99.90;;;;;;5092131;28;20426;-72
2021/06/16 02:51:41;;;;;;;;;;;14.60;99.90;;;;;;5092051;28;20482;-72
2021/06/16 02:54:17;;;;;;;;;;;14.60;99.90;;;;;;5083872;28;19908;-72
2021/06/16 02:56:44;;;;;;;;;;;14.60;99.90;;;;;;5083040;28;19927;-72
2021/06/16 02:59:11;;;;;;;;;;;14.60;99.90;;;;;;5091308;28;19912;-72
2021/06/16 03:01:37;;;;;;;;;;;14.50;99.90;;;;;;5090265;28;20377;-72
2021/06/16 03:04:04;;;;;;;;;;;14.50;99.90;;;;;;5091454;28;20426;-72
2021/06/16 03:06:29;;;;;;;;;;;14.60;99.90;;;;;;5091013;28;19915;-72
2021/06/16 03:08:55;;;;;;;;;;;14.50;99.90;;;;;;5091598;28;19909;-72
2021/06/16 03:11:21;;;;;;;;;;;14.50;99.90;;;;;;5090980;28;19915;-72
2021/06/16 03:13:48;;;;;;;;;;;14.60;99.90;;;;;;5091012;28;19912;-72
2021/06/16 03:16:14;;;;;;;;;;;14.50;99.90;;;;;;5090727;28;19908;-72
2021/06/16 03:18:40;;;;;;;;;;;14.50;99.90;;;;;;5091469;28;19908;-72
2021/06/16 03:21:06;;;;;;;;;;;14.60;99.90;;;;;;5091647;28;19908;-72
2021/06/16 03:23:32;;;;;;;;;;;14.60;99.90;;;;;;5083134;28;20503;-72
2021/06/16 03:25:58;;;;;;;;;;;14.60;99.90;;;;;;5089901;28;20073;-72
2021/06/16 03:28:24;;;;;;;;;;;14.60;99.90;;;;;;5091289;28;19963;-72
2021/06/16 03:30:51;;;;;;;;;;;14.60;99.90;;;;;;5090960;28;19912;-72
2021/06/16 03:33:18;;;;;;;;;;;14.60;99.90;;;;;;5091275;28;19908;-72
2021/06/16 03:35:43;;;;;;;;;;;14.60;99.90;;;;;;5090269;28;19927;-72
2021/06/16 03:38:09;;;;;;;;;;;14.60;99.90;;;;;;5090191;28;19912;-72
2021/06/16 03:40:34;;;;;;;;;;;14.60;99.90;;;;;;5090682;28;19922;-71
2021/06/16 03:43:01;;;;;;;;;;;14.70;99.90;;;;;;5090855;28;20373;-72
2021/06/16 03:45:26;;;;;;;;;;;14.60;99.90;;;;;;5091211;28;19912;-72
2021/06/16 03:47:54;;;;;;;;;;;14.60;99.90;;;;;;5090118;28;19965;-72
2021/06/16 03:50:20;;;;;;;;;;;14.60;99.90;;;;;;5090772;28;19909;-72
2021/06/16 03:52:46;;;;;;;;;;;14.70;99.90;;;;;;5086860;28;19908;-71
2021/06/16 03:55:12;;;;;;;;;;;14.70;99.90;;;;;;5086962;28;19985;-72
2021/06/16 03:57:38;;;;;;;;;;;14.70;99.90;;;;;;5089782;28;19908;-72
2021/06/16 04:00:05;;;;;;;;;;;14.70;99.90;;;;;;5089602;28;19908;-71
2021/06/16 04:02:31;;;;;;;;;;;14.80;99.90;;;;;;5090499;28;19908;-72
2021/06/16 04:05:00;;;;;;;;;;;14.80;99.90;;;;;;5090828;28;19912;-72
2021/06/16 04:07:26;;;;;;;;;;;14.80;99.90;;;;;;5090254;28;19947;-72
2021/06/16 04:09:53;;;;;;;;;;;14.80;99.90;;;;;;5090846;28;19950;-72
2021/06/16 04:12:19;;;;;;;;;;;14.80;99.90;;;;;;5089987;28;20396;-72
2021/06/16 04:14:45;;;;;;;;;;;14.90;99.90;;;;;;5090749;28;19952;-72
2021/06/16 04:17:11;;;;;;;;;;;15.10;99.90;;;;;;5089990;28;19909;-72
2021/06/16 04:19:37;;;;;;;;;;;15.20;99.90;;;;;;5090692;28;19912;-72
2021/06/16 04:22:02;;;;;;;;;;;15.30;99.90;;;;;;5090176;28;19916;-72
2021/06/16 04:24:28;;;;;;;;;;;15.40;99.90;;;;;;5080926;28;20281;-72
2021/06/16 04:26:53;;;;;;;;;;;15.40;99.90;;;;;;5089397;28;20281;-72
2021/06/16 04:29:19;;;;;;;;;;;15.50;99.90;;;;;;5090553;28;20364;-72
2021/06/16 04:31:44;;;;;;;;;;;15.60;99.90;;;;;;5090318;28;19912;-72
2021/06/16 04:34:10;;;;;;;;;;;15.70;99.90;;;;;;5090446;28;19908;-72
2021/06/16 04:36:36;;;;;;;;;;;15.80;99.90;;;;;;5089644;28;19915;-72
2021/06/16 04:39:02;;;;;;;;;;;15.90;99.90;;;;;;5090519;28;19909;-72
2021/06/16 04:41:27;;;;;;;;;;;16.00;99.90;;;;;;5090124;28;19924;-72
2021/06/16 04:43:52;;;;;;;;;;;16.10;99.90;;;;;;5090136;28;19908;-72
2021/06/16 04:46:18;;;;;;;;;;;16.20;99.90;;;;;;5089566;28;19970;-72
2021/06/16 04:48:44;;;;;;;;;;;16.20;99.90;;;;;;5089931;28;20425;-72
2021/06/16 04:51:09;;;;;;;;;;;16.30;99.90;;;;;;5090483;28;19908;-72
2021/06/16 04:53:35;;;;;;;;;;;16.30;99.90;;;;;;5081985;28;20466;-72
2021/06/16 04:56:00;;;;;;;;;;;16.40;99.90;;;;;;5089468;28;19956;-72
2021/06/16 04:58:26;;;;;;;;;;;16.50;99.90;;;;;;5090197;28;20349;-72
2021/06/16 05:00:52;;;;;;;;;;;16.60;99.90;;;;;;5090472;28;20266;-72
2021/06/16 05:03:18;;;;;;;;;;;16.70;99.90;;;;;;5089840;28;20019;-72
2021/06/16 05:05:43;;;;;;;;;;;16.80;99.90;;;;;;5089476;28;19912;-72
2021/06/16 05:08:08;;;;;;;;;;;16.90;99.90;;;;;;5090363;28;20349;-72
2021/06/16 05:10:34;;;;;;;;;;;17.00;99.90;;;;;;5090210;28;19915;-72
2021/06/16 05:13:00;;;;;;;;;;;17.10;99.90;;;;;;5089637;28;20334;-72
2021/06/16 05:15:25;;;;;;;;;;;17.20;99.90;;;;;;5090283;28;19915;-72
2021/06/16 05:17:51;;;;;;;;;;;17.30;99.90;;;;;;5089799;28;20400;-72
2021/06/16 05:20:16;;;;;;;;;;;17.30;99.90;;;;;;5089777;28;20048;-72
2021/06/16 05:22:45;;;;;;;;;;;17.40;99.90;;;;;;5085808;28;19912;-72
2021/06/16 05:25:11;;;;;;;;;;;17.50;99.90;;;;;;5085450;28;20003;-72
2021/06/16 05:27:37;;;;;;;;;;;17.60;99.90;;;;;;5108840;28;19995;-72
2021/06/16 05:30:03;;;;;;;;;;;17.70;99.90;;;;;;5110358;28;19915;-72
2021/06/16 05:32:28;;;;;;;;;;;17.90;99.90;;;;;;5110378;28;20481;-72
2021/06/16 05:34:54;;;;;;;;;;;18.10;99.90;;;;;;5110490;28;19908;-72
2021/06/16 05:37:20;;;;;;;;;;;18.30;99.90;;;;;;5112630;28;19960;-72
2021/06/16 05:39:45;;;;;;;;;;;18.60;99.90;;;;;;5113235;28;19908;-73
2021/06/16 05:42:11;;;;;;;;;;;18.80;99.90;;;;;;5113526;28;19923;-72
2021/06/16 05:44:37;;;;;;;;;;;19.10;99.90;;;;;;5114237;28;19915;-72
2021/06/16 05:47:03;;;;;;;;;;;19.30;99.90;;;;;;5113564;28;19908;-72
2021/06/16 05:49:28;;;;;;;;;;;19.60;99.90;;;;;;5113930;28;19918;-72
2021/06/16 05:51:54;;;;;;;;;;;19.80;99.90;;;;;;5113813;28;20387;-72
2021/06/16 05:54:19;;;;;;;;;;;20.10;99.90;;;;;;5087269;28;19915;-72
2021/06/16 05:56:45;;;;;;;;;;;20.40;99.90;;;;;;5092420;28;20365;-72
2021/06/16 05:59:10;;;;;;;;;;;20.70;99.90;;;;;;5093250;28;19908;-72
2021/06/16 06:01:36;;;;;;;;;;;20.90;99.90;;;;;;5093491;28;20289;-72
2021/06/16 06:04:02;;;;;;;;;;;21.20;99.90;;;;;;5093117;28;19915;-72
2021/06/16 06:06:31;;;;;;;;;;;21.40;99.90;;;;;;5091942;28;19914;-72
2021/06/16 06:08:57;;;;;;;;;;;21.60;99.90;;;;;;5093253;28;19915;-72
2021/06/16 06:11:22;;;;;;;;;;;21.80;99.90;;;;;;5093321;28;19908;-72
2021/06/16 06:13:48;;;;;;;;;;;22.00;99.90;;;;;;5092724;28;19912;-72
2021/06/16 06:16:13;;;;;;;;;;;22.30;99.90;;;;;;5092228;28;19918;-72
2021/06/16 06:18:39;;;;;;;;;;;22.50;99.90;;;;;;5093235;28;19962;-72
2021/06/16 06:21:04;;;;;;;;;;;22.80;99.90;;;;;;5092886;28;20395;-72
2021/06/16 06:23:30;;;;;;;;;;;23.00;99.90;;;;;;5084086;28;19912;-73
2021/06/16 06:25:55;;;;;;;;;;;23.40;99.90;;;;;;5090747;28;20389;-72
2021/06/16 06:28:21;;;;;;;;;;;23.80;99.90;;;;;;5090663;28;19909;-72
2021/06/16 06:30:46;;;;;;;;;;;24.20;99.90;;;;;;5090682;28;19916;-72
2021/06/16 06:33:12;;;;;;;;;;;24.50;99.20;;;;;;5091861;28;19908;-73
2021/06/16 06:35:37;;;;;;;;;;;24.80;98.80;;;;;;5091975;28;19918;-72
2021/06/16 06:38:04;;;;;;;;;;;25.10;98.50;;;;;;5092634;28;19926;-72
2021/06/16 06:40:29;;;;;;;;;;;25.40;98.50;;;;;;5092488;28;19923;-74
2021/06/16 06:42:55;;;;;;;;;;;25.70;98.70;;;;;;5091958;28;20365;-73
2021/06/16 06:45:21;;;;;;;;;;;25.90;97.80;;;;;;5092508;28;20002;-73
2021/06/16 06:47:46;;;;;;;;;;;26.20;97.50;;;;;;5091019;28;20027;-73
2021/06/16 06:50:14;;;;;;;;;;;26.30;97.20;;;;;;5092211;28;19908;-73
2021/06/16 06:52:39;;;;;;;;;;;26.30;97.30;;;;;;5089065;28;19908;-73
2021/06/16 06:55:08;;;;;;;;;;;26.40;97.80;;;;;;5086905;28;20383;-73
2021/06/16 06:57:34;;;;;;;;;;;26.60;97.00;;;;;;5091167;28;20333;-73
2021/06/16 06:59:59;;;;;;;;;;;26.70;96.80;;;;;;5092515;28;20003;-74
2021/06/16 07:02:25;;;;;;;;;;;26.90;95.70;;;;;;5092851;28;19908;-73
2021/06/16 07:04:51;;;;;;;;;;;27.00;96.40;;;;;;5092987;28;20003;-73
2021/06/16 07:07:16;;;;;;;;;;;27.10;95.10;;;;;;5092267;28;19916;-73
2021/06/16 07:09:43;;;;;;;;;;;27.10;95.10;;;;;;5092168;28;19915;-74
2021/06/16 07:12:09;;;;;;;;;;;27.30;94.30;;;;;;5091699;28;19969;-74
2021/06/16 07:14:37;;;;;;;;;;;27.60;93.20;;;;;;5091697;28;20384;-73
2021/06/16 07:17:03;;;;;;;;;;;27.80;94.00;;;;;;5092548;28;19908;-74
2021/06/16 07:19:28;;;;;;;;;;;27.90;93.70;;;;;;5092948;28;20321;-73
2021/06/16 07:21:54;;;;;;;;;;;28.20;93.10;;;;;;5092805;28;20007;-74
2021/06/16 07:24:19;;;;;;;;;;;28.50;92.60;;;;;;5083170;28;20003;-74
2021/06/16 07:26:45;;;;;;;;;;;28.60;93.40;;;;;;5091159;28;20452;-73
2021/06/16 07:29:10;;;;;;;;;;;28.70;92.30;;;;;;5091788;28;19962;-74
2021/06/16 07:31:36;;;;;;;;;;;28.90;92.10;;;;;;5092020;28;20280;-74
2021/06/16 07:34:01;;;;;;;;;;;29.30;91.40;;;;;;5091416;28;20289;-74
2021/06/16 07:36:27;;;;;;;;;;;29.50;91.60;;;;;;5090983;28;20360;-73
2021/06/16 07:38:52;;;;;;;;;;;29.60;92.10;;;;;;5091822;28;19947;-74
2021/06/16 07:41:18;;;;;;;;;;;29.70;91.40;;;;;;5091549;28;20385;-74
2021/06/16 07:43:43;;;;;;;;;;;29.90;91.00;;;;;;5091395;28;20442;-74
2021/06/16 07:46:09;;;;;;;;;;;30.10;90.10;;;;;;5090343;28;20028;-74
2021/06/16 07:48:36;;;;;;;;;;;30.10;91.00;;;;;;5089335;28;22602;-74
2021/06/16 07:51:01;;;;;;;;;;;30.50;86.70;;;;;;5091487;28;19908;-74
2021/06/16 07:53:27;;;;;;;;;;;30.50;89.60;;;;;;5082969;28;19908;-74
2021/06/16 07:55:52;;;;;;;;;;;30.80;85.50;;;;;;5090036;28;19919;-74
2021/06/16 07:58:18;;;;;;;;;;;30.80;80.10;;;;;;5090750;28;19912;-74
2021/06/16 08:00:44;;;;;;;;;;;31.00;82.80;;;;;;5091547;28;20384;-74
2021/06/16 08:03:09;;;;;;;;;;;31.20;79.80;;;;;;5091222;28;19912;-74
2021/06/16 08:05:35;;;;;;;;;;;31.30;79.20;;;;;;5090444;28;19916;-74
2021/06/16 08:08:00;;;;;;;;;;;31.20;76.20;;;;;;5091050;28;19908;-74
2021/06/16 08:10:27;;;;;;;;;;;31.10;74.70;;;;;;5090156;28;19912;-74
2021/06/16 08:12:53;;;;;;;;;;;31.30;73.80;;;;;;5091528;28;20280;-74
2021/06/16 08:15:18;;;;;;;;;;;31.60;75.50;;;;;;5090668;28;19912;-74
2021/06/16 08:17:44;;;;;;;;;;;31.90;75.00;;;;;;5090520;28;19909;-73
2021/06/16 08:20:10;;;;;;;;;;;31.80;73.40;;;;;;5090940;28;20376;-73
2021/06/16 08:22:36;;;;;;;;;;;31.90;71.60;;;;;;5088370;28;19919;-73
2021/06/16 08:25:05;;;;;;;;;;;31.70;67.90;;;;;;5085335;28;19998;-73
2021/06/16 08:27:31;;;;;;;;;;;31.60;76.70;;;;;;5089985;28;20357;-73
2021/06/16 08:29:56;;;;;;;;;;;31.80;78.10;;;;;;5091023;28;19908;-74
2021/06/16 08:32:22;;;;;;;;;;;32.10;73.00;;;;;;5090799;28;19915;-74
2021/06/16 08:34:47;;;;;;;;;;;32.30;77.20;;;;;;5090622;28;19908;-74
2021/06/16 08:37:13;;;;;;;;;;;32.50;77.20;;;;;;5090135;28;20381;-74
2021/06/16 08:39:38;;;;;;;;;;;32.70;74.80;;;;;;5090701;28;19916;-74
2021/06/16 08:42:05;;;;;;;;;;;32.90;77.30;;;;;;5091044;28;20319;-73
2021/06/16 08:44:31;;;;;;;;;;;33.00;67.90;;;;;;5090492;28;20658;-74
2021/06/16 08:46:57;;;;;;;;;;;32.70;74.00;;;;;;5089613;28;19908;-74
2021/06/16 08:49:22;;;;;;;;;;;32.70;74.40;;;;;;5090904;28;20273;-74
2021/06/16 08:51:48;;;;;;;;;;;32.80;74.60;;;;;;5090824;28;19989;-74
2021/06/16 08:54:13;;;;;;;;;;;33.00;73.50;;;;;;5082335;28;19919;-74
2021/06/16 08:56:39;;;;;;;;;;;33.30;71.90;;;;;;5089307;28;19951;-74
2021/06/16 08:59:04;;;;;;;;;;;33.10;67.40;;;;;;5090598;28;19958;-74
2021/06/16 09:01:30;;;;;;;;;;;33.00;69.10;;;;;;5090546;28;19907;-74
2021/06/16 09:03:55;;;;;;;;;;;33.10;75.60;;;;;;5090874;28;20262;-75
2021/06/16 09:06:26;;;;;;;;;;;33.50;72.00;;;;;;5089483;28;19916;-72
2021/06/16 09:09:03;;;;;;;;;;;33.60;65.30;;;;;;5090766;28;20388;-72
2021/06/16 09:11:42;;;;;;;;;;;33.70;69.60;;;;;;5092347;28;20002;-72
2021/06/16 09:14:19;;;;;;;;;;;33.50;65.70;;;;;;5093917;28;19952;-71
2021/06/16 09:16:44;;;;;;;;;;;32.90;63.60;;;;;;5093304;28;19908;-72
2021/06/16 09:19:20;;;;;;;;;;;32.70;67.30;;;;;;5094021;28;20396;-72
2021/06/16 09:21:47;;;;;;;;;;;32.50;63.50;;;;;;5093267;28;19910;-73
2021/06/16 09:24:13;;;;;;;;;;;32.50;66.50;;;;;;5085125;28;19908;-71
2021/06/16 09:26:42;;;;;;;;;;;32.40;64.10;;;;;;5092488;28;19916;-71
2021/06/16 09:29:08;;;;;;;;;;;32.50;69.30;;;;;;5093917;28;19908;-75
2021/06/16 09:31:38;;;;;;;;;;;32.60;71.20;;;;;;5094215;28;20339;-71
2021/06/16 09:34:21;;;;;;;;;;;32.50;62.10;;;;;;5094008;28;20445;-72
2021/06/16 09:36:48;;;;;;;;;;;32.30;65.50;;;;;;5093260;28;19908;-72
2021/06/16 09:39:14;;;;;;;;;;;32.40;67.20;;;;;;5093967;28;20387;-71
2021/06/16 09:41:51;;;;;;;;;;;32.20;65.60;;;;;;5093957;28;19916;-72
2021/06/16 09:44:46;;;;;;;;;;;32.20;71.10;;;;;;5093600;28;20007;-72
2021/06/16 09:47:22;;;;;;;;;;;32.60;68.60;;;;;;5082409;28;19908;-72
2021/06/16 09:49:47;;;;;;;;;;;32.80;63.90;;;;;;5093308;28;20289;-71
2021/06/16 09:52:32;;;;;;;;;;;33.10;69.30;;;;;;5093613;28;19980;-71
2021/06/16 09:55:00;;;;;;;;;;;33.50;69.70;;;;;;5087436;28;19999;-72
2021/06/16 09:57:26;;;;;;;;;;;34.00;69.00;;;;;;5092439;28;20420;-71
2021/06/16 09:59:57;;;;;;;;;;;34.40;68.90;;;;;;5092883;28;20004;-72
2021/06/16 10:02:23;;;;;;;;;;;34.40;62.90;;;;;;5093452;28;19908;-71
2021/06/16 10:04:54;;;;;;;;;;;34.50;69.90;;;;;;5093038;28;19986;-71
2021/06/16 10:07:21;;;;;;;;;;;34.60;62.00;;;;;;5092281;28;19909;-71
2021/06/16 10:09:50;;;;;;;;;;;34.80;66.20;;;;;;5093305;28;19961;-72
2021/06/16 10:12:16;;;;;;;;;;;34.90;66.70;;;;;;5093229;28;19915;-72
2021/06/16 10:14:42;;;;;;;;;;;35.10;61.30;;;;;;5092910;28;20276;-72
2021/06/16 10:17:08;;;;;;;;;;;35.20;64.60;;;;;;5092183;28;19915;-72
2021/06/16 10:19:34;;;;;;;;;;;35.50;66.30;;;;;;5092979;28;19912;-72
2021/06/16 10:22:02;;;;;;;;;;;35.80;66.60;;;;;;5091956;28;19915;-72
2021/06/16 10:24:27;;;;;;;;;;;36.00;63.80;;;;;;5084200;28;20398;-73
2021/06/16 10:26:55;;;;;;;;;;;35.90;58.60;;;;;;5091129;28;20165;-73
2021/06/16 10:29:21;;;;;;;;;;;36.00;58.60;;;;;;5092786;28;19908;-72
2021/06/16 10:31:46;;;;;;;;;;;36.10;61.60;;;;;;5092842;28;19915;-72
2021/06/16 10:34:12;;;;;;;;;;;36.30;63.00;;;;;;5092904;28;20365;-72
2021/06/16 10:36:39;;;;;;;;;;;36.50;60.10;;;;;;5091743;28;20353;-76
2021/06/16 10:39:06;;;;;;;;;;;36.40;60.30;;;;;;5092348;28;20006;-72
2021/06/16 10:41:34;;;;;;;;;;;36.50;60.50;;;;;;5092453;28;19916;-74
2021/06/16 10:44:14;;;;;;;;;;;36.60;57.90;;;;;;5092631;28;19913;-72
2021/06/16 10:46:50;;;;;;;;;;;36.60;56.40;;;;;;5091808;28;19959;-71
2021/06/16 10:49:36;;;;;;;;;;;36.60;57.10;;;;;;5092433;28;19909;-74
2021/06/16 10:52:03;;;;;;;;;;;36.60;57.60;;;;;;5092510;28;19912;-71
2021/06/16 10:54:29;;;;;;;;;;;36.50;63.60;;;;;;5092507;28;19916;-72
2021/06/16 10:56:57;;;;;;;;;;;36.40;57.10;;;;;;5091869;28;19912;-73
2021/06/16 10:59:41;;;;;;;;;;;35.90;53.90;;;;;;5091708;28;19949;-72
2021/06/16 11:02:06;;;;;;;;;;;35.80;59.00;;;;;;5092601;28;19978;-72
2021/06/16 11:04:32;;;;;;;;;;;36.10;62.70;;;;;;5092210;28;20354;-72
2021/06/16 11:06:58;;;;;;;;;;;36.40;60.10;;;;;;5091479;28;19915;-71
2021/06/16 11:09:42;;;;;;;;;;;36.60;55.60;;;;;;5091635;28;19916;-71
2021/06/16 11:12:09;;;;;;;;;;;36.80;55.70;;;;;;5092339;28;19908;-72
2021/06/16 11:14:39;;;;;;;;;;;37.00;58.50;;;;;;5091989;28;20007;-76
2021/06/16 11:17:07;;;;;;;;;;;37.00;57.60;;;;;;5091068;28;19912;-74
2021/06/16 11:19:35;;;;;;;;;;;36.50;54.60;;;;;;5091672;28;19917;-73
2021/06/16 11:22:21;;;;;;;;;;;36.30;58.00;;;;;;5092128;28;19961;-73
2021/06/16 11:25:05;;;;;;;;;;;35.90;55.20;;;;;;5080053;28;20029;-73
2021/06/16 11:27:49;;;;;;;;;;;35.70;58.70;;;;;;5091111;28;19912;-74
2021/06/16 11:30:26;;;;;;;;;;;35.40;55.30;;;;;;5091515;28;19962;-73
2021/06/16 11:33:10;;;;;;;;;;;35.30;62.30;;;;;;5091924;28;19908;-71
2021/06/16 11:35:37;;;;;;;;;;;35.40;57.30;;;;;;5090958;28;19912;-71
2021/06/16 11:38:02;;;;;;;;;;;35.50;58.80;;;;;;5090847;28;19965;-72
2021/06/16 11:40:28;;;;;;;;;;;35.50;56.40;;;;;;5091306;28;20351;-71
2021/06/16 11:42:54;;;;;;;;;;;35.60;60.00;;;;;;5091081;28;19908;-72
2021/06/16 11:45:19;;;;;;;;;;;35.80;57.70;;;;;;5091551;28;19958;-73
2021/06/16 11:47:53;;;;;;;;;;;36.00;56.60;;;;;;5090597;28;19953;-72
2021/06/16 11:50:24;;;;;;;;;;;36.30;54.20;;;;;;5090884;28;19947;-71
2021/06/16 11:52:56;;;;;;;;;;;36.40;53.50;;;;;;5086679;28;19954;-71
2021/06/16 11:55:38;;;;;;;;;;;36.40;57.20;;;;;;5088742;28;19912;-72
2021/06/16 11:58:18;;;;;;;;;;;36.50;54.20;;;;;;5090990;28;19953;-72
2021/06/16 12:00:44;;;;;;;;;;;36.60;55.10;;;;;;5090645;28;20377;-72
2021/06/16 12:03:13;;;;;;;;;;;36.60;54.60;;;;;;5091402;28;19969;-74
2021/06/16 12:05:39;;;;;;;;;;;36.50;56.90;;;;;;5090255;28;19916;-76
2021/06/16 12:08:05;;;;;;;;;;;36.40;51.80;;;;;;5091266;28;19953;-72
2021/06/16 12:10:30;;;;;;;;;;;36.40;56.20;;;;;;5090577;28;20281;-72
2021/06/16 12:13:00;;;;;;;;;;;36.40;54.20;;;;;;5091101;28;20365;-75
2021/06/16 12:15:29;;;;;;;;;;;36.50;50.40;;;;;;5090789;28;20002;-72
2021/06/16 12:17:56;;;;;;;;;;;36.50;54.60;;;;;;5090017;28;19955;-72
2021/06/16 12:20:22;;;;;;;;;;;36.40;49.70;;;;;;5085052;28;19917;-72
2021/06/16 12:22:48;;;;;;;;;;;36.20;52.20;;;;;;5079833;28;20285;-73
2021/06/16 12:25:24;;;;;;;;;;;36.20;55.90;;;;;;5087860;28;19912;-72
2021/06/16 12:27:49;;;;;;;;;;;36.30;55.20;;;;;;5089812;28;20390;-72
2021/06/16 12:30:19;;;;;;;;;;;36.50;57.00;;;;;;5090319;28;20012;-72
2021/06/16 12:32:46;;;;;;;;;;;36.50;53.60;;;;;;5090840;28;19908;-74
2021/06/16 12:37:53;;;;;;;;;;;35.70;56.70;;;;;;5090058;28;20352;-72
2021/06/16 12:40:31;;;;;;;;;;;35.80;56.60;;;;;;5090245;28;19920;-72
2021/06/16 12:42:56;;;;;;;;;;;35.80;54.70;;;;;;5090928;28;20034;-72
2021/06/16 12:45:39;;;;;;;;;;;35.80;56.60;;;;;;5090718;28;20410;-72
2021/06/16 12:48:16;;;;;;;;;;;35.50;53.10;;;;;;5094852;28;19912;-72
2021/06/16 12:50:50;;;;;;;;;;;35.50;55.90;;;;;;5075171;28;19912;-72
2021/06/16 12:53:16;;;;;;;;;;;35.60;54.40;;;;;;5074875;28;19908;-72
2021/06/16 12:55:47;;;;;;;;;;;35.60;55.50;;;;;;5093848;28;19966;-72
2021/06/16 12:58:13;;;;;;;;;;;35.80;53.00;;;;;;5094439;28;19912;-74
2021/06/16 13:00:38;;;;;;;;;;;36.00;53.10;;;;;;5094467;28;19912;-72
2021/06/16 13:03:10;;;;;;;;;;;36.10;55.70;;;;;;5094568;28;19915;-73
2021/06/16 13:05:36;;;;;;;;;;;36.20;54.30;;;;;;5084073;28;20293;-72
2021/06/16 13:08:02;;;;;;;;;;;36.40;59.00;;;;;;5072507;28;19915;-72
2021/06/16 13:10:35;;;;;;;;;;;36.50;55.80;;;;;;5074446;28;19908;-73
2021/06/16 13:13:08;;;;;;;;;;;36.30;51.40;;;;;;5074517;28;20022;-72
2021/06/16 13:15:36;;;;;;;;;;;36.00;52.70;;;;;;5073861;28;20282;-72
2021/06/16 13:18:02;;;;;;;;;;;35.90;53.40;;;;;;5074020;28;19991;-72
2021/06/16 13:20:34;;;;;;;;;;;35.90;56.80;;;;;;5073730;28;19955;-73
2021/06/16 13:23:10;;;;;;;;;;;35.80;53.80;;;;;;5074020;28;19916;-75
2021/06/16 13:25:36;;;;;;;;;;;35.70;55.60;;;;;;5092898;28;19912;-72
2021/06/16 13:28:02;;;;;;;;;;;35.70;55.10;;;;;;5093565;28;19915;-75
2021/06/16 13:30:28;;;;;;;;;;;35.80;56.10;;;;;;5093499;28;19913;-73
2021/06/16 13:32:53;;;;;;;;;;;35.90;53.30;;;;;;5090881;28;19958;-72
2021/06/16 13:35:19;;;;;;;;;;;35.90;53.30;;;;;;5090907;28;19923;-72
2021/06/16 13:37:45;;;;;;;;;;;35.90;53.00;;;;;;5093650;28;20269;-72
2021/06/16 13:40:11;;;;;;;;;;;36.00;52.20;;;;;;5093674;28;19916;-72
2021/06/16 13:42:38;;;;;;;;;;;36.10;51.90;;;;;;5093698;28;20399;-73
2021/06/16 13:45:04;;;;;;;;;;;36.10;50.10;;;;;;5093289;28;19919;-72
2021/06/16 13:47:29;;;;;;;;;;;36.20;52.50;;;;;;5082346;28;19958;-72
2021/06/16 13:49:55;;;;;;;;;;;36.30;52.60;;;;;;5076192;28;20288;-73
2021/06/16 13:52:22;;;;;;;;;;;36.60;56.00;;;;;;5073141;28;20384;-72
2021/06/16 13:54:48;;;;;;;;;;;37.00;55.40;;;;;;5086146;28;19931;-72
2021/06/16 13:57:13;;;;;;;;;;;37.30;57.40;;;;;;5092460;28;20016;-72
2021/06/16 13:59:39;;;;;;;;;;;37.70;53.60;;;;;;5093475;28;20001;-73
2021/06/16 14:02:04;;;;;;;;;;;38.10;54.70;;;;;;5093453;28;19908;-73
2021/06/16 14:04:30;;;;;;;;;;;38.30;52.70;;;;;;5092276;28;19923;-72
2021/06/16 14:06:55;;;;;;;;;;;38.20;48.90;;;;;;5087464;28;20249;-72
2021/06/16 14:09:21;;;;;;;;;;;38.10;50.10;;;;;;5091745;28;19998;-73
2021/06/16 14:11:46;;;;;;;;;;;38.10;48.50;;;;;;5076624;28;19952;-76
2021/06/16 14:14:12;;;;;;;;;;;37.90;47.90;;;;;;5074117;28;19954;-72
2021/06/16 14:16:37;;;;;;;;;;;37.70;49.60;;;;;;5072191;28;19931;-72
2021/06/16 14:19:03;;;;;;;;;;;37.60;51.10;;;;;;5073083;28;19909;-73